View Sortable Currents For Network
ASOSAWOSCoCoRaHSCOOPDCPISUSM
SchoolNetOtherSCANMy FavoritesBy StateRWIS
RWIS SurfaceRWIS TrafficRWIS SoilBy NWS WFOUSCRN

Current AWOS Conditions

** This page will automatically refresh every five minutes.
Sorted by: (Station ID)     Click on a column to sort it.

Add ID: Name: Ob Time   Wind [knots]   Rainfall
Temp (Hi / Lo) DewP Feels RH% Dir Speed Peak Gust
@ Time
Alti Vsby Hour Today
VTIVINTON01:15 PM 41(41/31) 27 38 57 50 416 @ 03:15 AM 30.35 10 0
TVKCenterville01:15 PM 48(48/37) 39 43 71 360 10G1621 @ 04:35 AM 30.31 10 0
TNUNEWTON MUNI01:15 PM 43(45/36) 34 39 70 517 @ 07:15 AM 30.33 10 0
SLBStorm Lake01:15 PM 41(41/30) 34 35 76 10 815 @ 02:35 AM 30.31 10 0
SHLSHELDON01:15 PM 41(41/30) 36 38 82 340 410 @ 05:15 AM 30.34 10 0
SDASHENANDOAH MUNI01:15 PM 48(48/39) 43 45 83 10 616 @ 05:35 AM 30.32 10 0
RDKRED OAK01:15 PM 48(48/39) 39 45 71 40 5G1219 @ 12:55 AM 30.34 10 0
PROPerry01:15 PM 41(44/33) 38 89 0 010 @ 05:35 AM 30.34 10 0
PEAPELLA01:15 PM 48(48/37) 34 47 58 50 315 @ 12:15 AM 30.34 10 0
OXVKnoxville01:15 PM 46(46/37) 37 42 71 30 714 @ 12:15 AM 30.32 10 0
OOAOskaloosa01:15 PM 45(45/35) 33 42 63 30 516 @ 04:55 AM 30.32 10 0
OLZOELWEIN01:15 PM 41(41/32) 25 39 53 315 @ 05:55 AM 30.34 10 0
MUTMUSCATINE01:15 PM 43(45/34) 28 38 55 30 8G1422 @ 02:35 AM 30.33 10 0
MPZMOUNT PLEASANT 24 Mar 03:15 AMSite is Offline
LRJLE MARS01:15 PM 37(39/34) 34 32 89 320 512 @ 12:55 AM 30.37 10 0
IKVANKENY01:15 PM 43(45/34) 34 39 70 511 @ 03:55 AM 30.35 10 0
IIBINDEPENDENCE01:15 PM 42(43/33) 29 38 60 20 511 @ 03:55 AM 30.34 10 0
IFAIowa Falls01:35 PM 42(43/34) 33 40 70 90 311 @ 01:35 AM 30.35 10 0
ICLCLARINDA01:15 PM 50(50/41) 41 46 71 10 814 @ 01:15 AM 30.34 10 0
I75Osceola01:15 PM 43(46/41) 39 41 86 360 39 @ 12:15 AM 30.32 7 0
HPTHampton01:15 PM 41(41/32) 27 57 0 09 @ 07:35 AM 30.34 10 0
HNRHARLAN01:15 PM 45(45/34) 37 41 73 10 6G1217 @ 03:15 AM 30.33 10 0
GGIGrinnell01:15 PM 41(43/33) 33 37 73 50 515 @ 07:55 AM 30.35 10 0
FXYForest City01:15 PM 43(43/34) 28 55 0 09 @ 01:35 AM 30.34 10 0
FSWFORT MADISON01:15 PM 46(46/37) 36 43 68 30 518 @ 02:35 AM 30.29 10 0
FODFORT DODGE01:14 PM 39(40/33) 34 36 82 350 410 @ 01:35 AM 30.35 10 0
FFLFAIRFIELD01:15 PM 45(45/34) 34 40 65 30 9G1422 @ 03:35 AM 30.31 10 0
EOKKEOKUK MUNI01:15 PM 46(46/37) 36 42 68 360 7G1321 @ 02:55 AM 30.28 10 0
EBSWebster City01:15 PM 39(39/32) 37 92 0 09 @ 01:15 AM 30.33 10 0
DNSDENISON01:15 PM 45(45/34) 36 41 71 6G1119 @ 03:15 AM 30.35 10 0
DEHDECORAH01:15 PM 41(41/30) 10 38 28 4G1013 @ 02:15 AM 30.33 10 0
CWICLINTON12:56 PM 41(41/30) 27 34 57 40 1121 @ 08:15 AM 30.33 10 0
CSQCRESTON01:15 PM 43(45/37) 41 38 93 30 721 @ 12:55 AM 30.32 9 0
CNCCHARITON01:15 PM 45(45/39) 41 40 86 360 816 @ 03:35 AM 30.32 10 0 0.0001
CKPCherokee01:15 PM 42(42/31) 34 38 73 320 610 @ 12:35 AM 30.36 10 0
CINCARROLL01:15 PM 41(43/34) 37 36 86 30 712 @ 02:55 AM 30.34 10 0
CCYCHARLES CITY25 Mar 12:15 PM 41(41/32) 23 38 48 50 4G1012 @ 04:55 AM 30.34 10 0
CBFCOUNCIL BLUFFS01:15 PM 45(45/37) 41 40 86 360 915 @ 05:15 AM 30.34 10 0
CAVCLARION01:15 PM 41(41/32) 32 110 49 @ 06:55 AM 30.35 10 0
BNWBOONE MUNI01:15 PM 39(43/32) 39 35 100 100 512 @ 04:55 AM 30.32 10 0
AXAALGONA01:15 PM 39(39/32) 34 35 82 50 514 @ 12:15 AM 30.34 10 0
AWGWASHINGTON01:15 PM 43(45/34) 32 360 817 @ 04:15 AM 30.33 10 0
AIOATLANTIC01:15 PM 45(45/36) 41 43 86 414 @ 05:15 AM 30.32 10 0
ADUAUDUBON01:15 PM 45(45/34) 37 73 0 00 @ 06:00 PM 30.34 10 0